createdAt,value
2023-01-11T00:02:15.388Z,71.90
2023-01-11T00:04:44.385Z,71.90
2023-01-11T00:07:13.401Z,71.90
2023-01-11T00:09:40.021Z,71.90
2023-01-11T00:12:12.841Z,71.90
2023-01-11T00:14:39.509Z,71.80
2023-01-11T00:17:07.345Z,71.80
2023-01-11T00:19:37.684Z,71.80
2023-01-11T00:22:06.287Z,71.80
2023-01-11T00:24:38.287Z,71.70
2023-01-11T00:27:04.969Z,71.60
2023-01-11T00:29:31.711Z,71.60
2023-01-11T00:32:00.778Z,71.50
2023-01-11T00:34:27.690Z,71.50
2023-01-11T00:36:56.809Z,71.50
2023-01-11T00:39:25.596Z,71.40
2023-01-11T00:42:13.392Z,71.40
2023-01-11T00:44:58.595Z,71.40
2023-01-11T00:47:44.081Z,71.30
2023-01-11T00:50:10.821Z,71.50
2023-01-11T00:52:38.463Z,71.50
2023-01-11T00:55:05.591Z,71.50
2023-01-11T00:57:34.412Z,71.40
2023-01-11T01:00:03.925Z,71.40
2023-01-11T01:02:33.470Z,71.40
2023-01-11T01:05:00.448Z,71.50
2023-01-11T01:07:27.091Z,71.40
2023-01-11T01:09:59.417Z,71.50
2023-01-11T01:12:44.641Z,71.40
2023-01-11T01:15:12.700Z,71.50
2023-01-11T01:17:44.525Z,71.30
2023-01-11T01:20:11.482Z,71.30
2023-01-11T01:22:43.129Z,71.40
2023-01-11T01:25:10.365Z,71.50
2023-01-11T01:27:38.383Z,71.50
2023-01-11T01:30:06.112Z,71.50
2023-01-11T01:32:34.973Z,71.60
2023-01-11T01:35:04.347Z,71.60
2023-01-11T01:37:30.958Z,71.60
2023-01-11T01:39:59.316Z,71.70
2023-01-11T01:42:25.926Z,71.90
2023-01-11T01:45:00.450Z,72.60
2023-01-11T01:47:39.536Z,72.20
2023-01-11T01:50:37.501Z,72.00
2023-01-11T01:53:28.379Z,72.20
2023-01-11T01:55:58.552Z,72.10
2023-01-11T01:58:32.518Z,72.20
2023-01-11T02:01:19.196Z,72.20
2023-01-11T02:03:46.879Z,72.20
2023-01-11T02:06:16.131Z,72.30
2023-01-11T02:08:49.577Z,72.40
2023-01-11T02:11:32.238Z,72.50
2023-01-11T02:14:06.529Z,72.40
2023-01-11T02:16:38.620Z,72.40
2023-01-11T02:19:13.217Z,72.40
2023-01-11T02:21:54.889Z,72.50
2023-01-11T02:24:33.279Z,72.60
2023-01-11T02:27:31.193Z,72.60
2023-01-11T02:30:13.640Z,72.70
2023-01-11T02:33:03.104Z,72.50
2023-01-11T02:35:47.877Z,72.60
2023-01-11T02:38:29.287Z,73.10
2023-01-11T02:41:25.107Z,72.30
2023-01-11T02:44:34.931Z,72.40
2023-01-11T02:47:09.069Z,72.40
2023-01-11T02:49:40.141Z,72.20
2023-01-11T02:52:22.517Z,72.20
2023-01-11T02:54:57.061Z,72.20
2023-01-11T02:57:26.646Z,72.20
2023-01-11T02:59:57.884Z,72.30
2023-01-11T03:02:25.483Z,72.40
2023-01-11T03:04:52.223Z,72.40
2023-01-11T03:08:04.085Z,72.50
2023-01-11T03:10:45.437Z,73.20
2023-01-11T03:13:33.772Z,72.90
2023-01-11T03:16:20.396Z,73.10
2023-01-11T03:18:58.118Z,73.20
2023-01-11T03:21:44.938Z,73.10
2023-01-11T03:24:33.393Z,73.40
2023-01-11T03:27:15.107Z,73.90
2023-01-11T03:29:54.347Z,73.90
2023-01-11T03:32:53.346Z,73.70
2023-01-11T03:35:46.385Z,74.00
2023-01-11T03:38:38.067Z,73.80
2023-01-11T03:41:09.307Z,74.00
2023-01-11T03:43:39.905Z,74.10
2023-01-11T03:46:29.123Z,74.20
2023-01-11T03:49:04.716Z,74.40
2023-01-11T03:51:41.443Z,74.40
2023-01-11T03:54:11.269Z,74.60
2023-01-11T03:57:09.996Z,74.50
2023-01-11T03:59:39.682Z,74.70
2023-01-11T04:02:36.183Z,74.50
2023-01-11T04:05:04.441Z,74.90
2023-01-11T04:07:33.399Z,74.70
2023-01-11T04:10:00.120Z,74.90
2023-01-11T04:12:27.200Z,75.00
2023-01-11T04:14:53.897Z,75.10
2023-01-11T04:17:24.395Z,75.30
2023-01-11T04:19:53.420Z,75.30
2023-01-11T04:22:25.925Z,75.30
2023-01-11T04:24:58.571Z,75.50
2023-01-11T04:27:25.165Z,76.00
2023-01-11T04:29:51.800Z,75.50
2023-01-11T04:32:19.636Z,75.60
2023-01-11T04:34:51.156Z,75.70
2023-01-11T04:37:17.833Z,75.80
2023-01-11T04:39:46.408Z,76.00
2023-01-11T04:42:19.128Z,76.70
2023-01-11T04:44:54.806Z,76.10
2023-01-11T04:47:27.685Z,76.60
2023-01-11T04:49:54.293Z,76.30
2023-01-11T04:52:25.668Z,76.30
2023-01-11T04:54:55.426Z,76.30
2023-01-11T04:57:23.792Z,76.40
2023-01-11T04:59:50.560Z,76.40
2023-01-11T05:02:19.336Z,76.50
2023-01-11T05:04:50.330Z,76.60
2023-01-11T05:07:16.969Z,76.70
2023-01-11T05:09:43.717Z,76.70
2023-01-11T05:12:10.341Z,76.80
2023-01-11T05:14:36.982Z,76.80
2023-01-11T05:17:12.515Z,77.00
2023-01-11T05:19:39.126Z,77.00
2023-01-11T05:22:09.294Z,77.10
2023-01-11T05:24:36.253Z,77.20
2023-01-11T05:27:04.051Z,77.20
2023-01-11T05:29:30.708Z,77.20
2023-01-11T05:31:57.373Z,77.20
2023-01-11T05:34:26.555Z,77.30
2023-01-11T05:36:55.270Z,78.00
2023-01-11T05:39:34.643Z,77.50
2023-01-11T05:42:06.854Z,77.70
2023-01-11T05:44:56.822Z,77.60
2023-01-11T05:47:24.778Z,77.60
2023-01-11T05:49:54.222Z,77.70
2023-01-11T05:52:25.912Z,77.70
2023-01-11T05:54:52.555Z,77.90
2023-01-11T05:57:19.146Z,77.80
2023-01-11T05:59:52.941Z,77.80
2023-01-11T06:02:19.695Z,77.90
2023-01-11T06:04:49.107Z,78.00
2023-01-11T06:07:15.738Z,78.20
2023-01-11T06:09:49.205Z,78.10
2023-01-11T06:12:17.629Z,78.20
2023-01-11T06:14:47.212Z,78.20
2023-01-11T06:17:16.194Z,78.20
2023-01-11T06:19:45.094Z,78.20
2023-01-11T06:22:15.217Z,78.20
2023-01-11T06:24:41.854Z,78.30
2023-01-11T06:27:10.745Z,78.20
2023-01-11T06:29:44.412Z,78.30
2023-01-11T06:32:17.353Z,78.30
2023-01-11T06:34:44.381Z,78.30
2023-01-11T06:37:24.769Z,78.20
2023-01-11T06:39:51.892Z,78.60
2023-01-11T06:42:19.472Z,78.30
2023-01-11T06:44:46.050Z,78.40
2023-01-11T06:47:12.645Z,78.40
2023-01-11T06:49:41.538Z,79.00
2023-01-11T06:52:08.138Z,78.40
2023-01-11T06:54:34.769Z,78.20
2023-01-11T06:57:03.647Z,78.20
2023-01-11T06:59:32.598Z,78.40
2023-01-11T07:02:03.821Z,78.30
2023-01-11T07:04:30.931Z,78.50
2023-01-11T07:06:57.846Z,78.40
2023-01-11T07:09:24.464Z,78.50
2023-01-11T07:11:55.283Z,78.40
2023-01-11T07:14:23.240Z,78.40
2023-01-11T07:16:53.208Z,78.40
2023-01-11T07:19:22.313Z,78.50
2023-01-11T07:21:57.263Z,78.40
2023-01-11T07:24:25.061Z,78.30
2023-01-11T07:26:57.270Z,78.30
2023-01-11T07:29:25.182Z,78.50
2023-01-11T07:31:54.151Z,78.40
2023-01-11T07:34:20.916Z,78.50
2023-01-11T07:36:47.526Z,78.40
2023-01-11T07:39:18.514Z,78.50
2023-01-11T07:42:04.983Z,78.60
2023-01-11T07:44:31.710Z,78.50
2023-01-11T07:47:01.831Z,78.40
2023-01-11T07:49:31.462Z,78.40
2023-01-11T07:51:58.426Z,79.00
2023-01-11T07:54:25.067Z,78.40
2023-01-11T07:56:57.396Z,78.40
2023-01-11T07:59:30.516Z,78.40
2023-01-11T08:02:04.655Z,78.40
2023-01-11T08:04:32.507Z,78.40
2023-01-11T08:07:01.554Z,78.30
2023-01-11T08:09:30.809Z,78.30
2023-01-11T08:12:19.471Z,78.20
2023-01-11T08:14:47.928Z,78.10
2023-01-11T08:17:17.335Z,78.00
2023-01-11T08:19:44.123Z,77.80
2023-01-11T08:22:11.048Z,77.40
2023-01-11T08:24:37.735Z,77.10
2023-01-11T08:27:07.466Z,77.00
2023-01-11T08:29:37.021Z,76.60
2023-01-11T08:32:06.298Z,76.40
2023-01-11T08:34:34.693Z,76.30
2023-01-11T08:37:02.085Z,76.30
2023-01-11T08:39:31.918Z,76.20
2023-01-11T08:42:02.998Z,76.10
2023-01-11T08:44:34.343Z,76.10
2023-01-11T08:47:05.160Z,76.00
2023-01-11T08:49:33.028Z,75.80
2023-01-11T08:52:00.844Z,75.70
2023-01-11T08:54:30.362Z,75.50
2023-01-11T08:56:57.007Z,75.50
2023-01-11T08:59:28.486Z,75.40
2023-01-11T09:01:55.171Z,75.30
2023-01-11T09:04:25.749Z,75.30
2023-01-11T09:06:54.516Z,75.30
2023-01-11T09:09:21.156Z,75.20
2023-01-11T09:11:54.019Z,75.30
2023-01-11T09:14:27.410Z,75.50
2023-01-11T09:16:54.637Z,75.40
2023-01-11T09:19:22.181Z,76.10
2023-01-11T09:21:52.050Z,75.50
2023-01-11T09:24:21.511Z,75.40
2023-01-11T09:26:48.405Z,75.20
2023-01-11T09:29:15.185Z,75.10
2023-01-11T09:31:42.910Z,74.80
2023-01-11T09:34:12.424Z,74.60
2023-01-11T09:36:45.060Z,74.40
2023-01-11T09:39:17.053Z,74.40
2023-01-11T09:42:08.696Z,73.90
2023-01-11T09:44:56.866Z,73.70
2023-01-11T09:47:31.028Z,73.60
2023-01-11T09:50:06.182Z,73.30
2023-01-11T09:52:40.851Z,73.20
2023-01-11T09:55:26.474Z,73.20
2023-01-11T09:58:11.558Z,73.40
2023-01-11T10:01:01.926Z,73.10
2023-01-11T10:04:19.496Z,73.00
2023-01-11T10:06:55.809Z,73.00
2023-01-11T10:18:39.409Z,73.20
2023-01-11T10:19:47.706Z,73.00
2023-01-11T10:22:39.468Z,72.30
2023-01-11T10:25:20.712Z,72.30
2023-01-11T10:28:06.640Z,71.80
2023-01-11T10:31:13.573Z,71.50
2023-01-11T10:34:03.989Z,71.60
2023-01-11T10:37:19.445Z,72.00
2023-01-11T10:40:28.447Z,72.20
2023-01-11T10:43:11.399Z,72.10
2023-01-11T10:45:51.344Z,72.10
2023-01-11T10:48:23.549Z,72.00
2023-01-11T10:51:01.664Z,72.00
2023-01-11T10:53:34.806Z,72.10
2023-01-11T10:57:02.987Z,72.00
2023-01-11T10:59:56.140Z,71.60
2023-01-11T11:02:39.693Z,70.90
2023-01-11T11:05:43.964Z,71.00
2023-01-11T11:08:28.701Z,70.90
2023-01-11T11:11:23.478Z,71.00
2023-01-11T11:14:15.032Z,71.10
2023-01-11T11:16:55.558Z,71.00
2023-01-11T11:19:25.705Z,71.20
2023-01-11T11:21:58.265Z,71.10
2023-01-11T11:24:50.391Z,71.00
2023-01-11T11:27:17.056Z,70.10
2023-01-11T11:29:50.360Z,70.00
2023-01-11T11:32:28.718Z,69.10
2023-01-11T11:34:58.627Z,69.30
2023-01-11T11:37:32.655Z,69.40
2023-01-11T11:40:00.476Z,68.90
2023-01-11T11:42:27.224Z,69.00
2023-01-11T11:45:09.089Z,68.60
2023-01-11T11:47:38.289Z,67.70
2023-01-11T11:50:37.083Z,68.10
2023-01-11T11:53:07.269Z,67.60
2023-01-11T11:55:36.545Z,68.00
2023-01-11T11:58:14.030Z,67.50
2023-01-11T12:00:50.061Z,67.40
2023-01-11T12:03:31.466Z,67.10
2023-01-11T12:06:06.921Z,66.80
2023-01-11T12:08:35.993Z,66.50
2023-01-11T12:11:06.007Z,66.60
2023-01-11T12:13:40.245Z,66.60
2023-01-11T12:16:23.508Z,66.90
2023-01-11T12:18:50.160Z,66.80
2023-01-11T12:21:37.495Z,67.30
2023-01-11T12:24:13.392Z,67.00
2023-01-11T12:27:19.924Z,66.90
2023-01-11T12:30:20.123Z,66.40
2023-01-11T12:33:33.877Z,65.90
2023-01-11T12:36:13.187Z,66.20
2023-01-11T12:38:39.826Z,66.20
2023-01-11T12:41:49.743Z,66.40
2023-01-11T12:44:37.063Z,66.40
2023-01-11T12:47:41.860Z,66.30
2023-01-11T12:50:24.870Z,66.00
2023-01-11T12:53:03.017Z,66.40
2023-01-11T12:55:55.596Z,66.50
2023-01-11T12:58:33.701Z,65.50
2023-01-11T13:01:22.391Z,65.30
2023-01-11T13:04:12.203Z,65.50
2023-01-11T13:07:15.328Z,65.10
2023-01-11T13:10:02.077Z,64.20
2023-01-11T13:12:45.715Z,64.50
2023-01-11T13:15:58.351Z,64.30
2023-01-11T13:19:02.541Z,63.60
2023-01-11T13:21:33.077Z,63.60
2023-01-11T13:24:04.953Z,63.80
2023-01-11T13:26:43.987Z,63.50
2023-01-11T13:29:31.455Z,63.30
2023-01-11T13:32:07.547Z,63.00
2023-01-11T13:34:56.603Z,63.20
2023-01-11T13:37:40.719Z,62.10
2023-01-11T13:40:25.939Z,61.90
2023-01-11T13:43:14.163Z,61.40
2023-01-11T13:45:48.087Z,61.70
2023-01-11T13:48:29.832Z,61.90
2023-01-11T13:51:25.033Z,61.60
2023-01-11T13:54:00.075Z,60.90
2023-01-11T13:56:44.587Z,61.10
2023-01-11T13:59:33.186Z,60.60
2023-01-11T14:02:31.811Z,60.80
2023-01-11T14:05:00.860Z,60.70
2023-01-11T14:07:38.255Z,61.40
2023-01-11T14:10:19.389Z,60.80
2023-01-11T14:12:58.067Z,60.60
2023-01-11T14:15:51.160Z,60.10
2023-01-11T14:18:39.848Z,59.80
2023-01-11T14:21:36.703Z,60.20
2023-01-11T14:24:04.446Z,61.30
2023-01-11T14:26:36.639Z,60.70
2023-01-11T14:29:26.685Z,60.30
2023-01-11T14:32:21.381Z,59.80
2023-01-11T14:34:54.749Z,59.70
2023-01-11T14:38:02.377Z,60.30
2023-01-11T14:40:37.818Z,60.10
2023-01-11T14:43:26.233Z,60.30
2023-01-11T14:46:11.408Z,60.40
2023-01-11T14:49:17.037Z,60.90
2023-01-11T14:51:45.909Z,59.80
2023-01-11T14:54:37.573Z,60.80
2023-01-11T14:57:06.430Z,59.70
2023-01-11T14:59:45.278Z,60.30
2023-01-11T15:02:19.452Z,59.40
2023-01-11T15:04:51.862Z,59.80
2023-01-11T15:07:30.693Z,59.70
2023-01-11T15:10:05.859Z,59.30
2023-01-11T15:12:41.705Z,59.70
2023-01-11T15:15:16.975Z,59.70
2023-01-11T15:18:20.874Z,60.00
2023-01-11T15:21:10.588Z,59.90
2023-01-11T15:23:50.174Z,60.10
2023-01-11T15:26:19.626Z,60.80
2023-01-11T15:29:02.278Z,60.80
2023-01-11T15:31:54.265Z,60.40
2023-01-11T15:34:21.003Z,60.60
2023-01-11T15:37:06.285Z,61.10
2023-01-11T15:39:56.512Z,60.60
2023-01-11T15:42:55.003Z,60.50
2023-01-11T15:46:02.384Z,60.80
2023-01-11T15:48:40.470Z,61.40
2023-01-11T15:51:34.110Z,61.30
2023-01-11T15:54:18.244Z,60.30
2023-01-11T15:57:06.572Z,60.90
2023-01-11T15:59:56.198Z,60.60
2023-01-11T16:02:52.511Z,60.90
2023-01-11T16:05:30.882Z,60.20
2023-01-11T16:08:16.546Z,60.40
2023-01-11T16:11:03.818Z,60.20
2023-01-11T16:13:58.506Z,60.00
2023-01-11T16:16:33.833Z,60.40
2023-01-11T16:19:14.014Z,60.60
2023-01-11T16:21:49.502Z,60.40
2023-01-11T16:24:37.703Z,60.90
2023-01-11T16:27:05.989Z,61.00
2023-01-11T16:29:37.667Z,61.30
2023-01-11T16:32:18.049Z,61.30
2023-01-11T16:34:47.498Z,62.10
2023-01-11T16:37:38.403Z,61.50
2023-01-11T16:40:43.592Z,61.40
2023-01-11T16:43:30.663Z,61.80
2023-01-11T16:45:59.919Z,62.00
2023-01-11T16:48:29.363Z,62.40
2023-01-11T16:51:05.563Z,62.60
2023-01-11T16:53:34.226Z,62.80
2023-01-11T16:56:08.501Z,63.00
2023-01-11T16:58:37.446Z,63.30
2023-01-11T17:01:10.081Z,63.30
2023-01-11T17:03:53.872Z,63.40
2023-01-11T17:06:25.269Z,63.30
2023-01-11T17:08:54.347Z,63.30
2023-01-11T17:11:26.359Z,63.40
2023-01-11T17:14:24.642Z,63.50
2023-01-11T17:17:05.908Z,63.30
2023-01-11T17:19:47.791Z,63.20
2023-01-11T17:22:26.943Z,63.30
2023-01-11T17:25:03.685Z,63.60
2023-01-11T17:27:37.927Z,63.50
2023-01-11T17:30:12.156Z,63.60
2023-01-11T17:32:43.346Z,63.80
2023-01-11T17:35:21.385Z,63.80
2023-01-11T17:37:51.204Z,63.90
2023-01-11T17:40:29.255Z,64.00
2023-01-11T17:43:24.702Z,64.00
2023-01-11T17:45:59.188Z,64.00
2023-01-11T17:48:27.284Z,63.90
2023-01-11T17:51:04.376Z,63.90
2023-01-11T17:53:37.055Z,64.00
2023-01-11T17:56:29.238Z,64.10
2023-01-11T17:59:21.593Z,64.20
2023-01-11T18:01:52.666Z,64.20
2023-01-11T18:04:26.082Z,64.20
2023-01-11T18:07:22.310Z,64.20
2023-01-11T18:09:53.369Z,64.10
2023-01-11T18:12:35.177Z,64.10
2023-01-11T18:15:05.552Z,63.90
2023-01-11T18:17:33.449Z,63.90
2023-01-11T18:20:01.382Z,64.00
2023-01-11T18:22:43.436Z,63.90
2023-01-11T18:25:25.497Z,63.90
2023-01-11T18:28:12.118Z,63.70
2023-01-11T18:30:42.302Z,63.70
2023-01-11T18:33:16.921Z,63.90
2023-01-11T18:35:45.454Z,63.80
2023-01-11T18:38:16.542Z,63.90
2023-01-11T18:40:46.637Z,63.90
2023-01-11T18:43:16.574Z,64.10
2023-01-11T18:45:43.654Z,64.20
2023-01-11T18:48:24.427Z,64.30
2023-01-11T18:50:51.962Z,64.40
2023-01-11T18:53:18.607Z,64.40
2023-01-11T18:55:45.965Z,64.50
2023-01-11T18:58:12.731Z,64.70
2023-01-11T19:00:44.076Z,64.70
2023-01-11T19:05:49.866Z,64.70
2023-01-11T19:08:21.166Z,64.70
2023-01-11T19:10:55.002Z,64.60
2023-01-11T19:13:21.666Z,64.50
2023-01-11T19:15:54.017Z,64.50
2023-01-11T19:18:20.622Z,64.50
2023-01-11T19:20:47.371Z,64.30
2023-01-11T19:23:16.184Z,64.30
2023-01-11T19:25:43.982Z,64.40
2023-01-11T19:28:15.008Z,64.30
2023-01-11T19:30:41.858Z,64.20
2023-01-11T19:33:12.550Z,64.40
2023-01-11T19:35:41.948Z,64.20
2023-01-11T19:38:09.788Z,64.10
2023-01-11T19:40:39.007Z,64.70
2023-01-11T19:43:08.914Z,64.10
2023-01-11T19:45:38.542Z,64.20
2023-01-11T19:48:08.547Z,64.20
2023-01-11T19:50:35.355Z,64.20
2023-01-11T19:53:04.846Z,64.20
2023-01-11T19:55:36.519Z,64.10
2023-01-11T19:58:08.036Z,64.20
2023-01-11T20:00:37.627Z,64.30
2023-01-11T20:03:06.343Z,64.40
2023-01-11T20:05:44.227Z,65.10
2023-01-11T20:08:16.638Z,64.40
2023-01-11T20:10:43.284Z,64.40
2023-01-11T20:13:15.701Z,64.30
2023-01-11T20:15:44.810Z,64.40
2023-01-11T20:18:11.720Z,64.40
2023-01-11T20:20:38.346Z,64.20
2023-01-11T20:23:13.914Z,64.30
2023-01-11T20:25:41.825Z,64.30
2023-01-11T20:28:15.327Z,64.20
2023-01-11T20:30:42.318Z,64.30
2023-01-11T20:33:12.199Z,64.40
2023-01-11T20:35:41.232Z,64.40
2023-01-11T20:38:10.321Z,64.30
2023-01-11T20:40:38.755Z,64.30
2023-01-11T20:43:05.377Z,64.20
2023-01-11T20:45:39.382Z,64.20
2023-01-11T20:48:26.263Z,64.20
2023-01-11T20:51:01.778Z,64.20
2023-01-11T20:53:30.680Z,64.60
2023-01-11T20:55:57.434Z,64.60
2023-01-11T20:58:26.145Z,64.80
2023-01-11T21:01:06.329Z,65.00
2023-01-11T21:03:34.278Z,65.00
2023-01-11T21:06:06.851Z,65.10
2023-01-11T21:08:36.774Z,65.30
2023-01-11T21:11:15.876Z,65.40
2023-01-11T21:13:47.458Z,65.50
2023-01-11T21:16:27.293Z,65.50
2023-01-11T21:19:04.975Z,65.50
2023-01-11T21:21:35.787Z,65.50
2023-01-11T21:24:10.587Z,65.50
2023-01-11T21:26:40.850Z,65.50
2023-01-11T21:29:08.531Z,65.70
2023-01-11T21:31:36.507Z,65.90
2023-01-11T21:34:05.808Z,66.10
2023-01-11T21:36:32.939Z,66.00
2023-01-11T21:39:03.209Z,66.10
2023-01-11T21:41:52.386Z,66.20
2023-01-11T21:44:20.285Z,66.30
2023-01-11T21:46:50.016Z,66.50
2023-01-11T21:49:17.168Z,66.70
2023-01-11T21:51:55.383Z,66.90
2023-01-11T21:54:24.567Z,67.00
2023-01-11T21:56:51.314Z,67.20
2023-01-11T21:59:20.697Z,67.60
2023-01-11T22:01:49.153Z,67.90
2023-01-11T22:04:18.509Z,68.30
2023-01-11T22:06:51.129Z,68.70
2023-01-11T22:09:20.797Z,69.10
2023-01-11T22:11:51.137Z,69.10
2023-01-11T22:14:17.789Z,69.40
2023-01-11T22:16:44.412Z,69.80
2023-01-11T22:19:11.200Z,70.00
2023-01-11T22:21:42.813Z,70.00
2023-01-11T22:24:13.037Z,70.20
2023-01-11T22:26:42.164Z,70.70
2023-01-11T22:29:13.633Z,70.80
2023-01-11T22:31:50.830Z,70.80
2023-01-11T22:34:25.836Z,71.40
2023-01-11T22:36:54.088Z,71.20
2023-01-11T22:39:22.755Z,71.10
2023-01-11T22:41:51.877Z,71.20
2023-01-11T22:44:19.285Z,71.20
2023-01-11T22:46:47.461Z,71.40
2023-01-11T22:49:14.701Z,71.60
2023-01-11T22:51:42.199Z,71.60
2023-01-11T22:54:09.813Z,71.50
2023-01-11T22:56:39.038Z,71.70
2023-01-11T22:59:08.225Z,72.30
2023-01-11T23:01:37.147Z,71.90
2023-01-11T23:04:05.426Z,71.90
2023-01-11T23:06:35.209Z,71.90
2023-01-11T23:09:15.634Z,71.90
2023-01-11T23:12:04.263Z,72.00
2023-01-11T23:14:34.674Z,72.10
2023-01-11T23:17:10.445Z,72.10
2023-01-11T23:19:42.336Z,72.40
2023-01-11T23:22:09.822Z,72.50
2023-01-11T23:24:40.966Z,72.60
2023-01-11T23:27:13.267Z,72.70
2023-01-11T23:29:39.820Z,72.70
2023-01-11T23:32:09.030Z,73.10
2023-01-11T23:34:38.185Z,72.80
2023-01-11T23:37:09.313Z,72.80
2023-01-11T23:39:36.386Z,73.10
2023-01-11T23:42:21.669Z,73.30
2023-01-11T23:44:50.648Z,73.40
2023-01-11T23:47:24.771Z,73.50
2023-01-11T23:49:55.307Z,73.70
2023-01-11T23:52:25.047Z,73.90
2023-01-11T23:54:57.105Z,74.00
2023-01-11T23:57:28.242Z,74.10
